PWSweather.com
Personal Weather Stations
Station Observations
CANDIOTINO
Barrio Candioti Norte, Santa FeAR 3000

Barrio Candioti NorteSanta FeAR 3000

Lat: -31.632778, Lon: -60.695556

Elevation: 69

Station Type: WH-1081

http://www.eltiempoensantafe.com.ar

Latest ConditionsUpdated 12:30:02 PM GMT-03:57 Sunday, Sep 22, 2019
Currently Today's Max Today's Min Today's Average
Temperature 74.5°F23.6°C 76.3°F24.6°C 53.4°F11.9°C 61.0°F16.1°C
Dew Point 38.3°F3.5°C 49.7°F9.8°C 38.0°F3.3°C 45.1°F7.3°C
Winds 3.8 mph ESE6.1 kmh ESE 4.5 mph -7.2 kmh - - 1.6 mph 2.6 kmh
Wind Gusts 13.0 mph20.9 kmh 15.2 mph24.5 kmh - -
Humidity 27% 81% 26% 59%
Pressure 30.26 in1024.7 mb 30.28 in1025.4 mb 30.11 in1019.6 mb -
Hour Temp Dew Point Humidity Winds Wind Gusts Pressure Precip Precip Rate Daily Precip Total
12:30 PM 74.5°F23.6°C 38.3°F3.5°C 27% 3.8 mph ESE6.1 kmh ESE 13.0 mph20.9 kmh 30.26 in1024.7 mb 0.00 in0.0 mm 0.00 in0.0 mm 0.00 in0.0 mm
12:15 PM 75.2°F24.0°C 38.0°F3.3°C 26% 3.1 mph ESE5.0 kmh ESE 9.8 mph15.8 kmh 30.27 in1025.1 mb 0.00 in0.0 mm 0.00 in0.0 mm 0.00 in0.0 mm
12:00 PM 76.3°F24.6°C 39.9°F4.4°C 27% 2.2 mph E3.5 kmh E 6.9 mph11.1 kmh 30.26 in1024.7 mb 0.00 in0.0 mm 0.00 in0.0 mm 0.00 in0.0 mm
11:45 AM 74.5°F23.6°C 41.0°F5.0°C 30% 4.5 mph NE7.2 kmh NE 13.0 mph20.9 kmh 30.27 in1025.1 mb 0.00 in0.0 mm 0.00 in0.0 mm 0.00 in0.0 mm
11:30 AM 73.6°F23.1°C 41.1°F5.1°C 31% 3.1 mph E5.0 kmh E 15.2 mph24.5 kmh 30.27 in1025.1 mb 0.00 in0.0 mm 0.00 in0.0 mm 0.00 in0.0 mm
11:15 AM 72.7°F22.6°C 41.2°F5.1°C 32% 2.2 mph E3.5 kmh E 9.8 mph15.8 kmh 30.27 in1025.1 mb 0.00 in0.0 mm 0.00 in0.0 mm 0.00 in0.0 mm
11:00 AM 70.5°F21.4°C 42.3°F5.7°C 36% 2.2 mph ESE3.5 kmh ESE 11.4 mph18.3 kmh 30.27 in1025.1 mb 0.00 in0.0 mm 0.00 in0.0 mm 0.00 in0.0 mm
10:45 AM 69.8°F21.0°C 41.7°F5.4°C 36% 3.8 mph E6.1 kmh E 10.7 mph17.2 kmh 30.28 in1025.4 mb 0.00 in0.0 mm 0.00 in0.0 mm 0.00 in0.0 mm
10:30 AM 68.9°F20.5°C 43.6°F6.4°C 40% 2.2 mph ENE3.5 kmh ENE 7.6 mph12.2 kmh 30.28 in1025.4 mb 0.00 in0.0 mm 0.00 in0.0 mm 0.00 in0.0 mm
10:15 AM 66.7°F19.3°C 44.2°F6.8°C 44% 3.1 mph ESE5.0 kmh ESE 9.2 mph14.8 kmh 30.28 in1025.4 mb 0.00 in0.0 mm 0.00 in0.0 mm 0.00 in0.0 mm
10:00 AM 66.9°F19.4°C 45.5°F7.5°C 46% 3.1 mph ESE5.0 kmh ESE 7.6 mph12.2 kmh 30.27 in1025.1 mb 0.00 in0.0 mm 0.00 in0.0 mm 0.00 in0.0 mm
09:45 AM 65.5°F18.6°C 46.4°F8.0°C 50% 3.1 mph E5.0 kmh E 7.6 mph12.2 kmh 30.27 in1025.1 mb 0.00 in0.0 mm 0.00 in0.0 mm 0.00 in0.0 mm
09:30 AM 64.9°F18.3°C 46.4°F8.0°C 51% 2.2 mph N3.5 kmh N 6.0 mph9.7 kmh 30.28 in1025.4 mb 0.00 in0.0 mm 0.00 in0.0 mm 0.00 in0.0 mm
09:15 AM 64.2°F17.9°C 45.2°F7.3°C 50% 2.2 mph NE3.5 kmh NE 4.5 mph7.2 kmh 30.27 in1025.1 mb 0.00 in0.0 mm 0.00 in0.0 mm 0.00 in0.0 mm
09:00 AM 63.1°F17.3°C 45.2°F7.3°C 52% 0.7 mph N1.1 kmh N 5.4 mph8.7 kmh 30.27 in1025.1 mb 0.00 in0.0 mm 0.00 in0.0 mm 0.00 in0.0 mm
08:45 AM 61.0°F16.1°C 45.2°F7.3°C 56% 2.2 mph N3.5 kmh N 4.5 mph7.2 kmh 30.26 in1024.7 mb 0.00 in0.0 mm 0.00 in0.0 mm 0.00 in0.0 mm
08:30 AM 59.9°F15.5°C 46.4°F8.0°C 61% 0.7 mph NE1.1 kmh NE 3.8 mph6.1 kmh 30.25 in1024.4 mb 0.00 in0.0 mm 0.00 in0.0 mm 0.00 in0.0 mm
08:15 AM 57.2°F14.0°C 46.0°F7.8°C 66% 1.6 mph E2.6 kmh E 6.9 mph11.1 kmh 30.24 in1024.0 mb 0.00 in0.0 mm 0.00 in0.0 mm 0.00 in0.0 mm
08:00 AM 58.3°F14.6°C 48.6°F9.2°C 70% 3.1 mph E5.0 kmh E 5.4 mph8.7 kmh 30.24 in1024.0 mb 0.00 in0.0 mm 0.00 in0.0 mm 0.00 in0.0 mm
07:45 AM 54.7°F12.6°C 45.8°F7.7°C 72% 1.6 mph E2.6 kmh E 4.5 mph7.2 kmh 30.23 in1023.7 mb 0.00 in0.0 mm 0.00 in0.0 mm 0.00 in0.0 mm
07:30 AM 54.0°F12.2°C 46.2°F7.9°C 75% 0.7 mph NE1.1 kmh NE 3.8 mph6.1 kmh 30.22 in1023.4 mb 0.00 in0.0 mm 0.00 in0.0 mm 0.00 in0.0 mm
07:15 AM 53.6°F12.0°C 46.6°F8.1°C 77% 1.6 mph E2.6 kmh E 3.8 mph6.1 kmh 30.20 in1022.7 mb 0.00 in0.0 mm 0.00 in0.0 mm 0.00 in0.0 mm
07:00 AM 53.4°F11.9°C 47.1°F8.4°C 79% Calm Calm 1.6 mph2.6 kmh 30.20 in1022.7 mb 0.00 in0.0 mm 0.00 in0.0 mm 0.00 in0.0 mm
06:45 AM 54.1°F12.3°C 47.8°F8.8°C 79% Calm Calm 2.2 mph3.5 kmh 30.18 in1022.0 mb 0.00 in0.0 mm 0.00 in0.0 mm 0.00 in0.0 mm
06:30 AM 54.7°F12.6°C 49.0°F9.4°C 81% Calm Calm 2.2 mph3.5 kmh 30.19 in1022.4 mb 0.00 in0.0 mm 0.00 in0.0 mm 0.00 in0.0 mm
06:15 AM 54.7°F12.6°C 49.0°F9.4°C 81% Calm Calm 2.2 mph3.5 kmh 30.18 in1022.0 mb 0.00 in0.0 mm 0.00 in0.0 mm 0.00 in0.0 mm
06:00 AM 54.7°F12.6°C 49.0°F9.4°C 81% Calm Calm 0.7 mph1.1 kmh 30.17 in1021.7 mb 0.00 in0.0 mm 0.00 in0.0 mm 0.00 in0.0 mm
05:45 AM 55.4°F13.0°C 49.0°F9.4°C 79% Calm Calm 3.1 mph5.0 kmh 30.17 in1021.7 mb 0.00 in0.0 mm 0.00 in0.0 mm 0.00 in0.0 mm
05:30 AM 55.0°F12.8°C 47.3°F8.5°C 75% Calm Calm 1.6 mph2.6 kmh 30.16 in1021.3 mb 0.00 in0.0 mm 0.00 in0.0 mm 0.00 in0.0 mm
05:15 AM 55.6°F13.1°C 47.4°F8.6°C 74% Calm Calm 1.6 mph2.6 kmh 30.15 in1021.0 mb 0.00 in0.0 mm 0.00 in0.0 mm 0.00 in0.0 mm
05:00 AM 55.9°F13.3°C 46.7°F8.2°C 71% Calm Calm -- 30.14 in1020.7 mb 0.00 in0.0 mm 0.00 in0.0 mm 0.00 in0.0 mm
04:45 AM 56.5°F13.6°C 47.2°F8.4°C 71% 0.7 mph SE1.1 kmh SE 1.6 mph2.6 kmh 30.14 in1020.7 mb 0.00 in0.0 mm 0.00 in0.0 mm 0.00 in0.0 mm
04:30 AM 56.8°F13.8°C 46.8°F8.2°C 69% Calm Calm 2.2 mph3.5 kmh 30.14 in1020.7 mb 0.00 in0.0 mm 0.00 in0.0 mm 0.00 in0.0 mm
04:15 AM 57.2°F14.0°C 46.7°F8.2°C 68% 1.6 mph S2.6 kmh S 3.1 mph5.0 kmh 30.14 in1020.7 mb 0.00 in0.0 mm 0.00 in0.0 mm 0.00 in0.0 mm
04:00 AM 57.2°F14.0°C 47.1°F8.4°C 69% 1.6 mph S2.6 kmh S 3.8 mph6.1 kmh 30.14 in1020.7 mb 0.00 in0.0 mm 0.00 in0.0 mm 0.00 in0.0 mm
03:45 AM 57.0°F13.9°C 49.2°F9.6°C 75% 2.2 mph S3.5 kmh S 4.5 mph7.2 kmh 30.14 in1020.7 mb 0.00 in0.0 mm 0.00 in0.0 mm 0.00 in0.0 mm
03:30 AM 56.8°F13.8°C 49.7°F9.8°C 77% 3.1 mph S5.0 kmh S 6.0 mph9.7 kmh 30.14 in1020.7 mb 0.00 in0.0 mm 0.00 in0.0 mm 0.00 in0.0 mm
03:15 AM 57.4°F14.1°C 49.2°F9.6°C 74% 3.1 mph S5.0 kmh S 6.0 mph9.7 kmh 30.14 in1020.7 mb 0.00 in0.0 mm 0.00 in0.0 mm 0.00 in0.0 mm
03:00 AM 57.4°F14.1°C 49.2°F9.6°C 74% 3.1 mph S5.0 kmh S 7.6 mph12.2 kmh 30.14 in1020.7 mb 0.00 in0.0 mm 0.00 in0.0 mm 0.00 in0.0 mm
02:45 AM 57.6°F14.2°C 49.3°F9.6°C 74% 4.5 mph S7.2 kmh S 6.9 mph11.1 kmh 30.15 in1021.0 mb 0.00 in0.0 mm 0.00 in0.0 mm 0.00 in0.0 mm
02:30 AM 58.5°F14.7°C 43.7°F6.5°C 58% 2.2 mph S3.5 kmh S 4.5 mph7.2 kmh 30.15 in1021.0 mb 0.00 in0.0 mm 0.00 in0.0 mm 0.00 in0.0 mm
02:15 AM 57.6°F14.2°C 42.0°F5.6°C 56% 1.6 mph S2.6 kmh S 2.2 mph3.5 kmh 30.14 in1020.7 mb 0.00 in0.0 mm 0.00 in0.0 mm 0.00 in0.0 mm
02:00 AM 58.1°F14.5°C 42.0°F5.6°C 55% Calm Calm 1.6 mph2.6 kmh 30.13 in1020.3 mb 0.00 in0.0 mm 0.00 in0.0 mm 0.00 in0.0 mm
01:45 AM 58.5°F14.7°C 42.4°F5.8°C 55% Calm Calm 1.6 mph2.6 kmh 30.13 in1020.3 mb 0.00 in0.0 mm 0.00 in0.0 mm 0.00 in0.0 mm
01:30 AM 59.2°F15.1°C 42.6°F5.9°C 54% Calm Calm 3.1 mph5.0 kmh 30.12 in1020.0 mb 0.00 in0.0 mm 0.00 in0.0 mm 0.00 in0.0 mm
01:15 AM 59.4°F15.2°C 42.2°F5.7°C 53% Calm Calm 1.6 mph2.6 kmh 30.12 in1020.0 mb 0.00 in0.0 mm 0.00 in0.0 mm 0.00 in0.0 mm
01:00 AM 59.2°F15.1°C 42.1°F5.6°C 53% Calm Calm 1.6 mph2.6 kmh 30.11 in1019.6 mb 0.00 in0.0 mm 0.00 in0.0 mm 0.00 in0.0 mm
12:45 AM 60.3°F15.7°C 42.1°F5.6°C 51% Calm Calm 1.6 mph2.6 kmh 30.11 in1019.6 mb 0.00 in0.0 mm 0.00 in0.0 mm 0.00 in0.0 mm
12:30 AM 61.3°F16.3°C 42.0°F5.6°C 49% 0.7 mph NNW1.1 kmh NNW 6.0 mph9.7 kmh 30.11 in1019.6 mb 0.00 in0.0 mm 0.00 in0.0 mm 0.00 in0.0 mm
12:15 AM 61.5°F16.4°C 42.7°F5.9°C 50% 0.7 mph N1.1 kmh N 4.5 mph7.2 kmh 30.11 in1019.6 mb 0.00 in0.0 mm 0.00 in0.0 mm 0.00 in0.0 mm
12:00 AM 62.1°F16.7°C 44.2°F6.8°C 52% 1.6 mph N2.6 kmh N 5.4 mph8.7 kmh 30.11 in1019.6 mb 0.00 in0.0 mm 0.00 in0.0 mm 0.00 in0.0 mm